메인 페이지
METAR-TAF:

METAR-TAF

공항 :

Tiree, 스코틀랜드

위도: 56-30N, 경도: 006-53W, 고도: 12m

현재 날씨관측

예보는 59분 전, 16:50시(UTC)에 발표되었습니다.
북서4kt
온도 15°C
습도 77%
기압 1021 hPa
시정 10km 이상
고도 1600ft 상공 구름 조금

METAR: EGPU 231650Z 31004KT 9999 FEW016 15/11 Q1021

시각: 18:49 (17:49 UTC)

예보

예보는 3 시간 54분 전, 13:55시(UTC)에 발표되었습니다.
예보 대상 시간: 23일 15시부터 23일 19시까지 (UTC)
북서8kt
시정 10km 이상
고도 2000ft 상공 구름 조금

TAF: EGPU 231355Z 2315/2319 31008KT 9999 FEW020

4,000개 이상의 공항 관측 자료 및 예보 (METAR 및 TAF 보고).

지도상에서 검색 가능한 기상관측소가 노란 점과 빨간 점으로 표시되어 있습니다.

기상관측소 명을 보려면 표시 위로 마우스를 이동하세요.

날씨 관측과 예보를 보려면 클릭하세요.

지도 변경 : 확대하려면 엑스 표시가 있는 녹색 버튼, 축소하려면 빼기 표시가 있는 녹색 버튼, 다음 페이지의 지도를 보려면 녹색 화살표를 클릭하세요.


METAR-TAF: